Latest Weather Observations for Onslow Airport

IDW60801

Issued at 4:53 pm WST Saturday 2 December 2023 (issued every 10 minutes, with the page automatically refreshed every 10 minutes)

About weather observations | Map of weather stations | Latest weather observations for WA | Other Formats
Station Details ID: 005017 Name: ONSLOW AIRPORT Lat: -21.67 Lon: 115.11 Height: 10.5 m
Data from the previous 72 hours. | See also: Recent months at Onslow Airport
Date/Time
WST
Temp
°C
App
Temp
°C
Dew
Point
°C
Rel
Hum
%
Delta-T
°C
Wind Press
QNH
hPa
Press
MSL
hPa
Rain since
9am
mm
Dir  Spd
km/h
Gust
km/h
Spd
kts
Gust
kts
02/04:30pm 28.5 25.6 21.5 66 4.7 WNW 39 48 21 26 1006.7 1006.6 0.0
02/04:00pm 28.2 25.3 21.5 67 4.5 WNW 39 48 21 26 1006.8 1006.7 0.0
02/03:30pm 28.8 25.5 21.6 65 4.8 WNW 41 48 22 26 1006.9 1006.8 0.0
02/03:00pm 28.6 24.8 20.6 62 5.3 WNW 41 50 22 27 1007.2 1007.1 0.0
02/02:30pm 29.1 26.7 21.8 64 4.9 WNW 37 48 20 26 1007.5 1007.4 0.0
02/02:00pm 28.8 24.8 19.4 56 6.1 WNW 39 46 21 25 1007.7 1007.6 0.0
02/01:30pm 28.6 25.3 20.9 63 5.1 WNW 39 50 21 27 1008.0 1007.9 0.0
02/01:00pm 29.0 25.9 20.4 59 5.7 WNW 37 46 20 25 1008.2 1008.1 0.0
02/12:30pm 29.9 25.4 18.3 49 7.4 WNW 39 48 21 26 1008.4 1008.3 0.0
02/12:00pm 28.8 24.2 18.9 55 6.4 WNW 41 48 22 26 1008.7 1008.6 0.0
02/11:30am 28.0 24.3 20.0 61 5.2 WNW 39 48 21 26 1009.1 1009.0 0.0
02/11:00am 27.9 25.1 20.2 63 5.1 WNW 35 44 19 24 1009.3 1009.2 0.0
02/10:30am 28.9 26.6 20.1 59 5.8 WNW 32 41 17 22 1009.6 1009.5 0.0
02/10:00am 30.2 29.8 18.0 48 7.8 WSW 17 28 9 15 1009.8 1009.7 0.0
02/09:30am 28.8 27.7 17.7 51 7.0 WSW 20 32 11 17 1010.0 1009.9 0.0
02/09:00am 27.5 26.4 17.7 55 6.2 WSW 20 30 11 16 1010.3 1010.2 0.0
02/08:30am 26.2 25.1 17.8 60 5.3 SW 20 32 11 17 1010.4 1010.3 0.0
02/08:00am 25.7 24.5 18.4 64 4.6 SW 22 32 12 17 1010.2 1010.1 0.0
02/07:30am 24.3 22.6 18.2 68 3.8 WSW 24 32 13 17 1010.0 1009.9 0.0
02/07:00am 23.4 22.2 18.5 74 3.1 WSW 22 28 12 15 1009.8 1009.7 0.0
02/06:30am 22.5 22.4 18.7 79 2.4 WSW 17 22 9 12 1009.7 1009.6 0.0
02/06:00am 21.8 21.6 18.6 82 2.0 WSW 17 20 9 11 1009.7 1009.6 0.0
02/05:30am 21.4 21.9 18.4 83 1.9 SW 13 17 7 9 1009.5 1009.4 0.0
02/05:00am 21.8 20.7 18.6 82 2.0 SW 22 28 12 15 1009.2 1009.1 0.0
02/04:30am 21.9 20.9 18.9 83 1.9 SW 22 30 12 16 1009.4 1009.3 0.0
02/04:00am 22.0 20.5 19.4 85 1.7 SSW 26 32 14 17 1009.1 1009.0 0.0
02/03:30am 22.0 21.3 19.4 85 1.7 SW 22 28 12 15 1009.0 1008.9 0.0
02/03:00am 22.1 21.7 19.3 84 1.8 SW 20 26 11 14 1008.8 1008.7 0.0
02/02:30am 22.4 21.3 19.4 83 1.9 SW 24 30 13 16 1008.8 1008.7 0.0
02/02:00am 22.5 22.1 19.3 82 2.0 SW 20 26 11 14 1008.8 1008.7 0.0
02/01:30am 22.7 21.4 19.1 80 2.3 SW 24 30 13 16 1008.7 1008.6 0.0
02/01:00am 23.0 21.9 19.4 80 2.3 SW 24 30 13 16 1008.8 1008.7 0.0
02/12:30am 23.2 22.5 19.6 80 2.3 SW 22 28 12 15 1009.2 1009.1 0.0
02/12:00am 23.2 22.5 19.6 80 2.3 SW 22 32 12 17 1009.4 1009.3 0.0
 
Date/Time
WST
Temp
°C
App
Temp
°C
Dew
Point
°C
Rel
Hum
%
Delta-T
°C
Wind Press
QNH
hPa
Press
MSL
hPa
Rain since
9am
mm
Dir  Spd
km/h
Gust
km/h
Spd
kts
Gust
kts
01/11:30pm 23.3 22.3 19.7 80 2.3 SW 24 32 13 17 1009.4 1009.3 0.0
01/11:00pm 23.5 21.5 19.2 77 2.7 SW 28 35 15 19 1009.1 1009.0 0.0
01/10:30pm 23.7 22.2 18.6 73 3.2 SW 24 33 13 18 1009.0 1008.9 0.0
01/10:00pm 24.0 21.9 18.9 73 3.2 WSW 28 37 15 20 1008.9 1008.8 0.0
01/09:30pm 24.3 20.8 18.7 71 3.6 WSW 35 48 19 26 1008.5 1008.4 0.0
01/09:00pm 24.7 21.4 19.3 72 3.5 WSW 35 44 19 24 1008.5 1008.4 0.0
01/08:30pm 25.1 23.0 19.7 72 3.5 WSW 30 39 16 21 1008.2 1008.1 0.0
01/08:00pm 25.1 23.6 21.0 78 2.7 W 30 37 16 20 1007.8 1007.7 0.0
01/07:30pm 25.0 22.6 21.1 79 2.6 W 35 48 19 26 1007.4 1007.3 0.0
01/07:00pm 25.2 22.9 21.3 79 2.6 W 35 44 19 24 1007.0 1006.9 0.0
01/06:30pm 25.6 22.6 21.3 77 2.8 W 39 50 21 27 1006.5 1006.4 0.0
01/06:00pm 26.3 23.0 20.8 71 3.6 W 39 50 21 27 1006.3 1006.2 0.0
01/05:30pm 26.7 22.7 20.1 67 4.3 W 41 50 22 27 1005.9 1005.8 0.0
01/05:00pm 27.2 23.5 20.0 64 4.7 W 39 50 21 27 1005.6 1005.5 0.0
01/04:30pm 27.4 23.6 19.7 63 5.0 W 39 50 21 27 1005.6 1005.5 0.0
01/04:00pm 27.6 24.5 21.2 68 4.3 WNW 39 48 21 26 1005.7 1005.6 0.0
01/03:30pm 28.0 24.7 20.0 61 5.2 WNW 37 46 20 25 1005.6 1005.5 0.0
01/03:00pm 28.4 24.5 20.4 62 5.3 WNW 41 50 22 27 1005.9 1005.8 0.0
01/02:30pm 28.3 24.0 20.3 62 5.3 WNW 43 54 23 29 1006.2 1006.1 0.0
01/02:00pm 28.2 23.4 19.2 58 5.8 WNW 43 50 23 27 1006.5 1006.4 0.0
01/01:30pm 28.9 24.3 20.1 59 5.8 WNW 44 52 24 28 1006.8 1006.7 0.0
01/01:00pm 28.9 24.1 19.2 55 6.3 WNW 43 54 23 29 1007.1 1007.0 0.0
01/12:30pm 28.7 23.1 17.9 52 6.9 WNW 44 56 24 30 1007.5 1007.4 0.0
01/12:00pm 28.2 23.5 19.4 59 5.7 WNW 43 50 23 27 1007.6 1007.5 0.0
01/11:30am 28.5 24.3 19.7 59 5.7 WNW 41 48 22 26 1007.9 1007.8 0.0
01/11:00am 29.7 26.6 19.7 55 6.6 WNW 35 41 19 22 1008.2 1008.1 0.0
01/10:30am 30.0 28.3 18.1 49 7.6 W 24 33 13 18 1008.6 1008.5 0.0
01/10:00am 29.7 27.1 15.8 43 8.6 WSW 24 35 13 19 1009.1 1009.0 0.0
01/09:30am 28.7 26.5 16.9 48 7.4 SW 24 35 13 19 1009.5 1009.4 0.0
01/09:00am 27.8 25.8 18.2 56 6.1 SW 26 33 14 18 1009.7 1009.6 0.0
01/08:30am 26.5 24.6 18.6 62 5.0 SW 26 35 14 19 1009.7 1009.6 0.0
01/08:00am 25.2 23.6 19.3 70 3.8 SW 26 35 14 19 1010.0 1009.9 0.0
01/07:30am 24.3 23.5 20.0 77 2.8 WSW 24 32 13 17 1010.1 1010.1 0.0
01/07:00am 23.1 22.1 19.7 81 2.2 WSW 24 32 13 17 1010.0 1010.0 0.0
01/06:30am 22.1 22.4 19.5 85 1.7 WSW 17 24 9 13 1009.9 1009.9 0.0
01/06:00am 21.0 21.4 19.1 89 1.2 WSW 15 20 8 11 1009.7 1009.7 0.0
01/05:30am 20.8 20.6 18.6 87 1.4 WSW 17 20 9 11 1009.4 1009.4 0.0
01/05:00am 21.2 20.6 18.9 87 1.4 WSW 20 26 11 14 1009.3 1009.3 0.0
01/04:30am 21.2 20.6 18.8 86 1.5 WSW 20 28 11 15 1009.1 1009.1 0.0
01/04:00am 21.4 20.8 18.8 85 1.6 SW 20 28 11 15 1008.9 1008.9 0.0
01/03:30am 21.6 20.2 18.8 84 1.8 SW 24 30 13 16 1008.8 1008.8 0.0
01/03:00am 21.6 20.8 18.4 82 2.0 SW 20 26 11 14 1008.8 1008.8 0.0
01/02:30am 21.8 20.8 18.0 79 2.4 SW 20 28 11 15 1008.7 1008.7 0.0
01/02:00am 22.1 20.3 17.9 77 2.6 SW 24 30 13 16 1008.7 1008.7 0.0
01/01:30am 22.4 20.6 17.8 75 2.9 SW 24 30 13 16 1008.7 1008.7 0.0
01/01:00am 22.6 19.9 17.5 73 3.2 SW 28 33 15 18 1008.8 1008.8 0.0
01/12:30am 22.7 20.0 17.6 73 3.2 SW 28 37 15 20 1009.0 1009.0 0.0
01/12:00am 23.0 20.3 17.5 71 3.4 SW 28 35 15 19 1009.0 1009.0 0.0
 
Date/Time
WST
Temp
°C
App
Temp
°C
Dew
Point
°C
Rel
Hum
%
Delta-T
°C
Wind Press
QNH
hPa
Press
MSL
hPa
Rain since
9am
mm
Dir  Spd
km/h
Gust
km/h
Spd
kts
Gust
kts
30/11:30pm 23.3 20.0 18.0 72 3.3 SW 32 43 17 23 1009.0 1009.0 0.0
30/11:00pm 23.5 20.2 18.4 73 3.2 SW 33 41 18 22 1009.2 1009.2 0.0
30/10:30pm 23.7 20.1 18.6 73 3.2 SW 35 44 19 24 1009.3 1009.3 0.0
30/10:00pm 24.2 20.2 18.4 70 3.7 WSW 37 46 20 25 1009.0 1009.0 0.0
30/09:30pm 25.0 21.3 18.4 66 4.2 SW 35 43 19 23 1008.9 1008.9 0.0
30/09:00pm 25.6 23.1 18.0 63 4.8 WSW 28 37 15 20 1008.6 1008.6 0.0
30/08:30pm 25.7 23.5 18.6 65 4.5 WSW 28 35 15 19 1008.5 1008.5 0.0
30/08:00pm 26.0 23.7 18.4 63 4.8 WSW 28 41 15 22 1008.1 1008.1 0.0
30/07:30pm 26.4 23.3 18.3 61 5.1 WSW 32 41 17 22 1007.8 1007.8 0.0
30/07:00pm 27.3 23.8 18.0 56 5.9 WSW 33 43 18 23 1007.5 1007.5 0.0
30/06:30pm 28.4 24.6 18.2 54 6.5 WSW 35 44 19 24 1007.0 1007.0 0.0
30/06:00pm 29.5 25.7 18.9 53 6.9 W 37 46 20 25 1006.8 1006.7 0.0
30/05:30pm 30.3 25.8 17.4 46 8.2 W 37 43 20 23 1006.7 1006.6 0.0
30/05:00pm 29.1 25.9 20.3 59 5.8 W 37 46 20 25 1006.6 1006.5 0.0
30/04:30pm 29.1 25.4 20.8 61 5.5 W 41 50 22 27 1006.7 1006.6 0.0
30/04:00pm 29.3 26.1 20.2 58 6.0 WNW 37 46 20 25 1006.8 1006.7 0.0
30/03:30pm 29.6 25.9 19.9 56 6.4 WNW 39 44 21 24 1006.9 1006.8 0.0
30/03:00pm 30.1 26.6 19.5 53 6.9 WNW 37 46 20 25 1007.3 1007.3 0.0
30/02:30pm 29.5 25.4 18.3 51 7.2 WNW 37 48 20 26 1007.5 1007.5 0.0
30/02:00pm 29.8 24.8 18.9 52 7.1 WNW 43 50 23 27 1007.7 1007.7 0.0
30/01:30pm 30.0 26.5 20.5 56 6.3 WNW 39 46 21 25 1008.0 1008.0 0.0
30/01:00pm 29.4 25.0 19.4 55 6.5 WNW 41 46 22 25 1008.2 1008.2 0.0
30/12:30pm 29.4 25.9 19.7 56 6.3 WNW 37 44 20 24 1008.3 1008.3 0.0
30/12:00pm 29.2 25.9 19.2 54 6.5 WNW 35 41 19 22 1008.7 1008.7 0.0
30/11:30am 30.0 27.4 19.4 53 6.9 WNW 32 37 17 20 1009.1 1009.1 0.0
30/11:00am 30.7 29.0 18.1 47 8.1 WNW 24 32 13 17 1009.4 1009.4 0.0
30/10:30am 31.8 31.1 13.1 32 11.2 SSE 9 19 5 10 1009.6 1009.6 0.0
30/10:00am 30.2 29.7 13.9 37 9.8 S 9 17 5 9 1009.9 1009.9 0.0
30/09:30am 28.8 28.4 14.2 40 8.8 SSW 9 17 5 9 1010.2 1010.2 0.0
30/09:00am 28.1 26.5 15.1 45 7.9 SSW 17 22 9 12 1010.5 1010.5 0.0
30/08:30am 26.9 25.3 15.0 48 7.2 SSW 17 22 9 12 1010.6 1010.6 0.0
30/08:00am 25.6 23.4 15.0 52 6.4 SSW 20 30 11 16 1010.6 1010.6 0.0
30/07:30am 24.4 21.6 15.3 57 5.5 SSW 24 30 13 16 1010.7 1010.7 0.0
30/07:00am 22.8 20.8 15.6 64 4.3 SW 20 28 11 15 1010.5 1010.5 0.0
30/06:30am 21.3 19.3 15.6 70 3.4 SW 20 24 11 13 1010.3 1010.3 0.0
30/06:00am 20.3 18.8 15.3 73 3.0 SW 17 20 9 11 1009.8 1009.8 0.0
30/05:30am 20.6 18.8 15.6 73 3.0 SW 19 24 10 13 1009.4 1009.4 0.0
30/05:00am 20.8 19.4 15.6 72 3.1 SW 17 20 9 11 1009.2 1009.2 0.0
30/04:30am 21.2 19.3 15.7 71 3.3 SW 20 26 11 14 1009.0 1009.0 0.0
30/04:00am 21.5 19.8 15.8 70 3.4 SW 19 24 10 13 1008.9 1008.9 0.0
30/03:30am 21.7 19.7 15.5 68 3.7 SW 20 28 11 15 1008.8 1008.8 0.0
30/03:00am 21.9 19.5 15.3 66 3.9 SSW 22 28 12 15 1008.4 1008.4 0.0
30/02:30am 22.1 20.2 15.7 67 3.8 SW 20 26 11 14 1008.4 1008.4 0.0
30/02:00am 21.9 20.1 16.0 69 3.6 SW 20 26 11 14 1008.5 1008.5 0.0
30/01:30am 22.2 20.1 16.2 69 3.6 SW 22 28 12 15 1008.6 1008.6 0.0
30/01:00am 22.5 20.1 16.5 69 3.7 SW 24 32 13 17 1008.7 1008.7 0.0
30/12:30am 22.7 19.7 16.9 70 3.6 SW 28 35 15 19 1009.0 1009.0 0.0
30/12:00am 23.0 19.3 17.0 69 3.7 SW 32 39 17 21 1009.2 1009.2 0.0
 
Date/Time
WST
Temp
°C
App
Temp
°C
Dew
Point
°C
Rel
Hum
%
Delta-T
°C
Wind Press
QNH
hPa
Press
MSL
hPa
Rain since
9am
mm
Dir  Spd
km/h
Gust
km/h
Spd
kts
Gust
kts
29/11:30pm 23.2 19.4 17.2 69 3.7 SW 33 41 18 22 1009.4 1009.4 0.0
29/11:00pm 23.4 19.8 17.6 70 3.6 SW 33 43 18 23 1009.7 1009.7 0.0
29/10:30pm 23.6 20.4 17.3 67 3.9 SW 30 41 16 22 1009.9 1009.9 0.0
29/10:06pm 23.8 21.0 17.3 67 4.0 WSW 28 46 15 25 1009.9 1009.9 0.0
29/10:00pm 23.9 19.8 17.4 67 4.0 WSW 35 46 19 25 1009.8 1009.8 0.0
29/09:39pm 24.2 20.5 17.0 64 4.4 WSW 32 43 17 23 1009.9 1009.9 0.0
29/09:30pm 24.2 20.5 17.0 64 4.4 WSW 32 44 17 24 1009.9 1009.9 0.0
29/09:00pm 24.6 20.2 16.6 61 4.9 WSW 35 50 19 27 1009.5 1009.5 0.0
29/08:30pm 25.1 19.6 16.8 60 5.1 WSW 41 52 22 28 1009.1 1009.1 0.0
29/08:00pm 25.9 21.7 16.2 55 6.0 WSW 33 50 18 27 1009.0 1009.0 0.0
29/07:30pm 26.7 22.7 16.6 54 6.3 WSW 33 41 18 22 1008.8 1008.8 0.0
29/07:28pm 26.7 22.9 16.6 54 6.3 WSW 32 41 17 22 1008.8 1008.8 0.0
29/07:00pm 26.4 24.2 19.5 66 4.5 W 30 35 16 19 1008.4 1008.4 0.0
29/06:30pm 26.4 24.0 20.0 68 4.2 W 32 39 17 21 1008.2 1008.2 0.0
29/06:00pm 27.0 24.3 19.6 64 4.8 W 33 46 18 25 1007.8 1007.8 0.0
29/05:30pm 27.2 23.1 18.2 58 5.7 W 37 46 20 25 1007.6 1007.6 0.0
29/05:00pm 27.9 23.8 18.3 56 6.1 WNW 37 46 20 25 1007.5 1007.5 0.0

Other formats

Comma delimited format used in spreadsheet applications
http://www.bom.gov.au/fwo/IDW60801/IDW60801.95305.axf

JavaScript Object Notation format (JSON) in row-major order
http://www.bom.gov.au/fwo/IDW60801/IDW60801.95305.json

Data quality

Most of these data are generated automatically and are frequently updated. Quality checks on data are not normally performed. It is possible for incorrect values to appear. Refer to information at About Latest Weather Observations and please check the disclaimer before using these data.